Observations for NEWCASTLE, United Kingdom (EGNT)

EGNT 190320Z 23007KT 200V260 9999 FEW047 14/09 Q1002
EGNT 190250Z 22010KT 190V250 9999 FEW045 14/09 Q1003
EGNT 190150Z 22013KT 9999 FEW045 15/09 Q1002
EGNT 190120Z 22014KT 190V250 9999 FEW045 15/09 Q1002
EGNT 190050Z 23015KT 200V260 9999 FEW045 15/09 Q1002
EGNT 190020Z 23015KT 9999 FEW042 16/10 Q1002
EGNT 182350Z 23015G27KT 200V260 9999 FEW042 16/10 Q1001 
EGNT 182320Z 22013G23KT 180V250 9999 FEW040 16/10 Q1002 
EGNT 182250Z 22013KT 9999 FEW040 16/11 Q1001
EGNT 182220Z 21013KT 180V250 9999 FEW040 16/10 Q1001
EGNT 182150Z 21013G25KT 9999 FEW040 17/10 Q1001 
EGNT 182120Z 22014KT 180V240 9999 FEW040 17/11 Q1001
EGNT 182050Z 23013G25KT 190V260 9999 FEW035 17/11 Q1001 
EGNT 182020Z 23015G27KT 9999 FEW033 17/11 Q1001 
EGNT 181950Z 23014G25KT 190V270 9999 FEW030 18/12 Q1001 
EGNT 181920Z 22015G27KT 180V250 9999 FEW030 18/12 Q1000 
EGNT 181850Z 22015G25KT 190V260 9999 FEW030 18/12 Q1000 
EGNT 181820Z 22012KT 180V250 9999 FEW032 17/12 Q1001
EGNT 181750Z 22010KT 160V260 9999 FEW032 18/12 Q1001
EGNT 181720Z 22009KT 190V270 9999 FEW032 18/12 Q1000
EGNT 181650Z 23009KT 190V270 9999 FEW028 19/12 Q1000
EGNT 181620Z 23014G24KT 180V260 9999 FEW028 19/12 Q1000 
EGNT 181550Z 23014G24KT 190V260 9999 SCT032 19/12 Q1000 
EGNT 181520Z 24013KT 9999 SCT032 18/12 Q1000
EGNT 181450Z 25017G27KT 210V270 9999 SCT030 19/11 Q0999 
EGNT 181420Z 24021G33KT 9999 SCT035 19/11 Q0999 
EGNT 181350Z 24019G30KT 9999 FEW022 20/11 Q0998 
EGNT 181320Z 24020G32KT 200V260 9999 FEW022 20/10 Q0998 
EGNT 181250Z 25019G29KT 9999 FEW022 21/11 Q0997 
EGNT 181220Z 25015G26KT 9999 BKN024 20/14 Q0996 
EGNT 181150Z 24013KT 210V270 9999 BKN024 20/15 Q0996
EGNT 181050Z 24011KT 9999 FEW018 BKN030 20/15 Q0994 
EGNT 181020Z 23007KT 200V260 9999 FEW010 BKN028 19/15 Q0994 
EGNT 180950Z 22009KT 190V250 9999 FEW010 BKN028 19/15 Q0994 
EGNT 180920Z 20008KT 9000 FEW008 BKN021 16/14 Q0994 
EGNT 180850Z 20005KT 170V230 8000 FEW008 SCT020 BKN040 15/14 Q0994  
EGNT 180820Z 19007KT 150V230 8000 FEW008 SCT020 BKN040 15/13 Q0994  
EGNT 180750Z 19007KT 150V220 8000 -RA FEW008 SCT020 BKN040 14/13 Q0994  
EGNT 180720Z 18005KT 120V240 6000 -RA FEW008 SCT020 BKN040 14/12 Q0994  
EGNT 180650Z 18006KT 140V220 6000 -RA FEW008 SCT020 BKN040 14/12 Q0994  
EGNT 180620Z 19008KT 150V220 9999 6000W -RA SCT020 SCT040 14/11 Q0994   
EGNT 180550Z 18009KT 140V220 9999 VCSH FEW020 SCT040 15/10 Q0995
EGNT 180520Z 18010KT 140V230 9999 FEW032 15/10 Q0995
EGNT 180450Z 19007KT 150V220 9999 FEW035 14/09 Q0996
EGNT 180350Z 25004KT 9999 FEW035 14/09 Q0997
EGNT 180320Z 18004KT 140V220 9999 FEW035 14/10 Q0998
EGNT 180250Z 17005KT 150V210 9999 FEW035 15/11 Q0998